Time;durP1;ratioP1;P1;durP2;ratioP2;P2;SDS_P1;SDS_P2;PMS_P1;PMS_P2;Temp;Humidity;BMP_temperature;BMP_pressure;BME280_temperature;BME280_humidity;BME280_pressure;Samples;Min_cycle;Max_cycle;Signal;HPM_P1;HPM_P2
2021/01/03 00:01:24;;;;;;;21.50;11.57;;;;;;;;;;4797279;29;20684;-79
2021/01/03 00:03:51;;;;;;;21.80;10.20;;;;;;;;;;4784843;29;20232;-80
2021/01/03 00:06:19;;;;;;;21.43;10.67;;;;;;;;;;4796379;29;20501;-79
2021/01/03 00:08:48;;;;;;;24.03;10.40;;;;;;;;;;4785441;29;20265;-79
2021/01/03 00:11:17;;;;;;;20.17;10.33;;;;;;;;;;4797961;29;20218;-80
2021/01/03 00:13:46;;;;;;;25.27;11.53;;;;;;;;;;4784146;29;20232;-80
2021/01/03 00:16:14;;;;;;;24.20;11.37;;;;;;;;;;4795800;29;20205;-80
2021/01/03 00:18:41;;;;;;;22.60;12.00;;;;;;;;;;4817575;29;20208;-79
2021/01/03 00:21:10;;;;;;;23.37;11.77;;;;;;;;;;4786256;29;20224;-80
2021/01/03 00:23:38;;;;;;;22.93;11.33;;;;;;;;;;4801895;29;20232;-79
2021/01/03 00:26:05;;;;;;;23.00;10.27;;;;;;;;;;4780783;29;20212;-80
2021/01/03 00:28:34;;;;;;;25.77;11.67;;;;;;;;;;4800278;29;20731;-79
2021/01/03 00:31:01;;;;;;;21.27;11.10;;;;;;;;;;4796434;29;20209;-79
2021/01/03 00:33:29;;;;;;;20.90;11.40;;;;;;;;;;4797309;29;20590;-79
2021/01/03 00:35:57;;;;;;;20.73;10.80;;;;;;;;;;4799502;29;20239;-80
2021/01/03 00:38:25;;;;;;;19.73;10.43;;;;;;;;;;4783073;29;20681;-80
2021/01/03 00:40:53;;;;;;;21.10;10.30;;;;;;;;;;4784483;29;20260;-80
2021/01/03 00:43:21;;;;;;;24.17;12.63;;;;;;;;;;4798396;29;20239;-80
2021/01/03 00:45:50;;;;;;;23.43;10.80;;;;;;;;;;4799489;29;20213;-80
2021/01/03 00:48:19;;;;;;;29.90;12.57;;;;;;;;;;4785383;29;20596;-80
2021/01/03 00:50:46;;;;;;;26.70;12.43;;;;;;;;;;4785639;29;20208;-80
2021/01/03 00:53:14;;;;;;;22.13;10.77;;;;;;;;;;4792175;29;20228;-79
2021/01/03 00:55:42;;;;;;;22.80;9.97;;;;;;;;;;4797491;29;20263;-80
2021/01/03 00:58:09;;;;;;;22.03;10.57;;;;;;;;;;4804739;29;20215;-80
2021/01/03 01:00:37;;;;;;;25.20;11.37;;;;;;;;;;4804080;29;20668;-80
2021/01/03 01:03:06;;;;;;;20.20;11.67;;;;;;;;;;4820507;29;20235;-81
2021/01/03 01:05:33;;;;;;;22.10;11.00;;;;;;;;;;4808821;29;20228;-79
2021/01/03 01:08:01;;;;;;;22.53;11.40;;;;;;;;;;4784087;29;20589;-79
2021/01/03 01:10:30;;;;;;;24.27;11.83;;;;;;;;;;4801907;29;20235;-80
2021/01/03 01:13:01;;;;;;;22.97;11.37;;;;;;;;;;4796694;29;20236;-80
2021/01/03 01:15:30;;;;;;;23.97;11.50;;;;;;;;;;4799174;29;20217;-80
2021/01/03 01:18:02;;;;;;;25.90;12.30;;;;;;;;;;4802500;29;20219;-79
2021/01/03 01:20:32;;;;;;;24.23;11.47;;;;;;;;;;4782833;29;20204;-79
2021/01/03 01:23:01;;;;;;;23.97;11.57;;;;;;;;;;4783377;29;20244;-80
2021/01/03 01:25:31;;;;;;;22.37;11.63;;;;;;;;;;4800529;29;20216;-80
2021/01/03 01:27:59;;;;;;;23.17;11.17;;;;;;;;;;4800100;29;20238;-80
2021/01/03 01:30:29;;;;;;;25.63;11.00;;;;;;;;;;4792352;29;20442;-80
2021/01/03 01:32:57;;;;;;;21.20;10.70;;;;;;;;;;4796328;29;20259;-79
2021/01/03 01:35:27;;;;;;;25.43;11.00;;;;;;;;;;4794987;29;20566;-80
2021/01/03 01:37:57;;;;;;;22.10;11.20;;;;;;;;;;4802168;29;20239;-79
2021/01/03 01:40:26;;;;;;;21.07;10.47;;;;;;;;;;4800030;29;20217;-80
2021/01/03 01:42:54;;;;;;;23.97;11.17;;;;;;;;;;4784899;29;20228;-80
2021/01/03 01:45:25;;;;;;;25.40;11.70;;;;;;;;;;4782019;29;20217;-80
2021/01/03 01:47:58;;;;;;;24.07;11.80;;;;;;;;;;4796715;29;20610;-79
2021/01/03 01:50:33;;;;;;;21.10;11.37;;;;;;;;;;4796624;29;20232;-80
2021/01/03 01:53:02;;;;;;;23.97;11.20;;;;;;;;;;4795670;29;20232;-79
2021/01/03 01:55:37;;;;;;;22.67;10.50;;;;;;;;;;4799686;29;20208;-80
2021/01/03 01:58:13;;;;;;;23.43;11.60;;;;;;;;;;4795501;29;20219;-80
2021/01/03 02:00:42;;;;;;;22.70;11.30;;;;;;;;;;4792796;29;20211;-80
2021/01/03 02:03:17;;;;;;;21.53;10.60;;;;;;;;;;4798445;29;20231;-80
2021/01/03 02:05:51;;;;;;;24.43;9.50;;;;;;;;;;4799189;29;20208;-80
2021/01/03 02:08:26;;;;;;;23.07;10.63;;;;;;;;;;4795631;29;20596;-80
2021/01/03 02:10:54;;;;;;;25.50;10.63;;;;;;;;;;4787150;29;20216;-79
2021/01/03 02:13:24;;;;;;;21.50;10.80;;;;;;;;;;4788443;29;20259;-80
2021/01/03 02:15:54;;;;;;;20.67;10.30;;;;;;;;;;4785239;29;20223;-80
2021/01/03 02:18:22;;;;;;;20.87;10.93;;;;;;;;;;4804506;29;20212;-80
2021/01/03 02:21:03;;;;;;;20.87;10.40;;;;;;;;;;4791124;29;20204;-80
2021/01/03 02:23:37;;;;;;;20.80;11.43;;;;;;;;;;4798892;29;23100;-80
2021/01/03 02:26:06;;;;;;;25.40;12.17;;;;;;;;;;4801026;29;20216;-80
2021/01/03 02:28:38;;;;;;;23.83;11.67;;;;;;;;;;4799412;29;20217;-80
2021/01/03 02:31:06;;;;;;;25.73;11.73;;;;;;;;;;4814874;29;20224;-79
2021/01/03 02:33:38;;;;;;;23.40;11.37;;;;;;;;;;4800228;29;20604;-79
2021/01/03 02:36:09;;;;;;;24.97;12.27;;;;;;;;;;4784808;29;20220;-79
2021/01/03 02:38:41;;;;;;;25.17;11.73;;;;;;;;;;4776182;29;20215;-80
2021/01/03 02:41:09;;;;;;;24.67;12.03;;;;;;;;;;4798948;29;20268;-79
2021/01/03 02:43:37;;;;;;;24.10;12.50;;;;;;;;;;4797664;29;20236;-80
2021/01/03 02:46:05;;;;;;;24.37;13.03;;;;;;;;;;4781614;29;20221;-80
2021/01/03 02:48:32;;;;;;;22.97;11.20;;;;;;;;;;4800073;29;20207;-79
2021/01/03 02:51:00;;;;;;;23.37;11.60;;;;;;;;;;4800081;29;20223;-79
2021/01/03 02:53:28;;;;;;;25.20;11.13;;;;;;;;;;4811075;29;20243;-80
2021/01/03 02:55:55;;;;;;;23.77;11.23;;;;;;;;;;4818838;29;20217;-80
2021/01/03 02:58:24;;;;;;;23.77;11.53;;;;;;;;;;4819507;29;20192;-81
2021/01/03 03:00:51;;;;;;;25.93;12.80;;;;;;;;;;4823026;29;20188;-81
2021/01/03 03:03:19;;;;;;;24.47;12.23;;;;;;;;;;4822844;29;20239;-79
2021/01/03 03:05:47;;;;;;;25.40;12.23;;;;;;;;;;4824387;29;20196;-80
2021/01/03 03:08:14;;;;;;;26.83;12.20;;;;;;;;;;4806605;29;20227;-79
2021/01/03 03:10:42;;;;;;;28.80;12.83;;;;;;;;;;4785366;29;20223;-80
2021/01/03 03:13:09;;;;;;;23.50;11.37;;;;;;;;;;4797433;29;20236;-79
2021/01/03 03:15:38;;;;;;;22.00;10.83;;;;;;;;;;4779937;29;20554;-80
2021/01/03 03:18:08;;;;;;;22.63;11.40;;;;;;;;;;4796260;29;20227;-80
2021/01/03 03:20:36;;;;;;;28.73;12.67;;;;;;;;;;4798422;29;20216;-80
2021/01/03 03:23:04;;;;;;;26.73;12.03;;;;;;;;;;4796324;29;20593;-80
2021/01/03 03:25:31;;;;;;;24.57;12.10;;;;;;;;;;4797729;29;20562;-80
2021/01/03 03:27:59;;;;;;;24.37;12.27;;;;;;;;;;4798413;29;20216;-79
2021/01/03 03:30:27;;;;;;;26.23;12.57;;;;;;;;;;4797505;29;20235;-80
2021/01/03 03:32:57;;;;;;;23.70;11.23;;;;;;;;;;4797929;29;20613;-80
2021/01/03 03:35:28;;;;;;;28.43;12.17;;;;;;;;;;4785459;29;20231;-79
2021/01/03 03:37:57;;;;;;;29.50;12.73;;;;;;;;;;4797156;29;20220;-80
2021/01/03 03:40:25;;;;;;;26.37;12.60;;;;;;;;;;4785229;29;20672;-80
2021/01/03 03:42:52;;;;;;;27.67;13.03;;;;;;;;;;4798377;29;20808;-79
2021/01/03 03:45:20;;;;;;;27.57;13.33;;;;;;;;;;4799800;29;20215;-79
2021/01/03 03:47:48;;;;;;;24.90;11.70;;;;;;;;;;4799316;29;20695;-79
2021/01/03 03:50:18;;;;;;;27.60;13.23;;;;;;;;;;4800723;29;20228;-79
2021/01/03 03:52:45;;;;;;;30.37;12.47;;;;;;;;;;4799709;29;20727;-80
2021/01/03 03:55:14;;;;;;;28.57;13.17;;;;;;;;;;4795602;29;20215;-80
2021/01/03 03:57:41;;;;;;;22.17;11.73;;;;;;;;;;4798091;29;20200;-79
2021/01/03 04:00:12;;;;;;;25.70;11.77;;;;;;;;;;4798604;29;20205;-80
2021/01/03 04:02:41;;;;;;;28.37;13.23;;;;;;;;;;4798675;29;20243;-79
2021/01/03 04:05:11;;;;;;;25.33;11.80;;;;;;;;;;4802823;29;20212;-80
2021/01/03 04:07:40;;;;;;;26.20;12.10;;;;;;;;;;4800049;29;20216;-80
2021/01/03 04:10:09;;;;;;;26.27;11.90;;;;;;;;;;4796367;29;20235;-79
2021/01/03 04:12:37;;;;;;;25.80;12.30;;;;;;;;;;4798638;29;20754;-79
2021/01/03 04:15:07;;;;;;;24.23;12.77;;;;;;;;;;4783958;29;20217;-79
2021/01/03 04:17:34;;;;;;;26.57;12.60;;;;;;;;;;4782922;29;20217;-80
2021/01/03 04:20:03;;;;;;;25.77;13.30;;;;;;;;;;4800414;29;20209;-80
2021/01/03 04:22:30;;;;;;;29.60;12.37;;;;;;;;;;4794876;29;20573;-79
2021/01/03 04:25:00;;;;;;;28.00;12.43;;;;;;;;;;4783129;29;20204;-79
2021/01/03 04:27:28;;;;;;;27.13;12.77;;;;;;;;;;4781522;29;20213;-80
2021/01/03 04:29:55;;;;;;;29.90;12.57;;;;;;;;;;4798361;29;20604;-79
2021/01/03 04:32:23;;;;;;;28.20;13.57;;;;;;;;;;4797550;29;20600;-80
2021/01/03 04:34:51;;;;;;;28.73;13.47;;;;;;;;;;4794006;29;20216;-79
2021/01/03 04:37:19;;;;;;;27.93;12.87;;;;;;;;;;4797703;29;20424;-79
2021/01/03 04:39:47;;;;;;;24.63;11.90;;;;;;;;;;4782571;29;20210;-79
2021/01/03 04:42:19;;;;;;;28.83;12.90;;;;;;;;;;4794960;29;20236;-79
2021/01/03 04:44:47;;;;;;;27.83;12.97;;;;;;;;;;4795956;29;20231;-79
2021/01/03 04:47:23;;;;;;;29.33;12.73;;;;;;;;;;4799537;29;20212;-79
2021/01/03 04:49:56;;;;;;;27.17;14.20;;;;;;;;;;4805821;29;20223;-80
2021/01/03 04:52:43;;;;;;;25.43;12.50;;;;;;;;;;4817250;29;20251;-80
2021/01/03 04:55:19;;;;;;;26.97;12.77;;;;;;;;;;4821995;29;20212;-80
2021/01/03 04:57:56;;;;;;;27.47;13.00;;;;;;;;;;4797969;29;20208;-80
2021/01/03 05:00:26;;;;;;;26.93;13.13;;;;;;;;;;4784590;29;20204;-79
2021/01/03 05:03:16;;;;;;;25.57;13.00;;;;;;;;;;4798023;29;20228;-79
2021/01/03 05:05:46;;;;;;;28.10;12.97;;;;;;;;;;4780321;29;20291;-80
2021/01/03 05:08:23;;;;;;;28.77;12.97;;;;;;;;;;4783759;29;20299;-79
2021/01/03 05:10:52;;;;;;;25.20;12.73;;;;;;;;;;4796679;29;20707;-80
2021/01/03 05:13:35;;;;;;;31.13;15.17;;;;;;;;;;4796930;29;20240;-79
2021/01/03 05:16:03;;;;;;;25.97;13.37;;;;;;;;;;4767778;29;20240;-80
2021/01/03 05:18:31;;;;;;;27.47;12.63;;;;;;;;;;4797011;29;20209;-80
2021/01/03 05:21:06;;;;;;;31.33;14.40;;;;;;;;;;4788334;29;20678;-80
2021/01/03 05:23:36;;;;;;;27.97;13.93;;;;;;;;;;4803809;29;20239;-79
2021/01/03 05:26:05;;;;;;;29.07;14.07;;;;;;;;;;4803228;29;20224;-80
2021/01/03 05:28:35;;;;;;;33.80;14.33;;;;;;;;;;4795462;29;20212;-80
2021/01/03 05:31:13;;;;;;;32.23;14.30;;;;;;;;;;4796610;29;20224;-80
2021/01/03 05:33:51;;;;;;;32.00;14.83;;;;;;;;;;4792182;29;20254;-79
2021/01/03 05:36:39;;;;;;;30.50;14.00;;;;;;;;;;4793973;29;20224;-79
2021/01/03 05:39:14;;;;;;;29.13;14.47;;;;;;;;;;4797281;29;20204;-80
2021/01/03 05:42:07;;;;;;;28.40;13.93;;;;;;;;;;4795729;29;20242;-79
2021/01/03 05:44:37;;;;;;;27.17;13.13;;;;;;;;;;4795234;29;20224;-80
2021/01/03 05:47:17;;;;;;;28.07;13.77;;;;;;;;;;4783477;29;20212;-80
2021/01/03 05:49:46;;;;;;;30.07;13.87;;;;;;;;;;4794977;29;20688;-79
2021/01/03 05:52:19;;;;;;;30.40;13.90;;;;;;;;;;4799103;29;20236;-79
2021/01/03 05:54:48;;;;;;;27.90;12.87;;;;;;;;;;4793734;29;20223;-79
2021/01/03 05:57:22;;;;;;;24.60;12.53;;;;;;;;;;4783929;29;20201;-79
2021/01/03 05:59:50;;;;;;;30.07;14.30;;;;;;;;;;4795045;29;20217;-79
2021/01/03 06:02:20;;;;;;;29.60;13.90;;;;;;;;;;4798406;29;20247;-79
2021/01/03 06:04:48;;;;;;;28.17;13.37;;;;;;;;;;4798722;29;20219;-79
2021/01/03 06:07:22;;;;;;;29.80;14.63;;;;;;;;;;4784424;29;20208;-79
2021/01/03 06:09:49;;;;;;;26.97;14.23;;;;;;;;;;4780660;29;20339;-79
2021/01/03 06:12:20;;;;;;;29.80;13.17;;;;;;;;;;4797333;29;20236;-79
2021/01/03 06:14:51;;;;;;;34.60;15.30;;;;;;;;;;4795594;29;20216;-79
2021/01/03 06:17:27;;;;;;;27.87;13.90;;;;;;;;;;4797463;29;20572;-79
2021/01/03 06:20:02;;;;;;;28.33;13.80;;;;;;;;;;4801033;29;20228;-79
2021/01/03 06:22:37;;;;;;;33.23;14.57;;;;;;;;;;4798459;29;20766;-79
2021/01/03 06:25:16;;;;;;;33.00;13.60;;;;;;;;;;4797409;29;20887;-80
2021/01/03 06:27:45;;;;;;;27.80;13.90;;;;;;;;;;4795772;29;20224;-79
2021/01/03 06:30:16;;;;;;;30.53;14.70;;;;;;;;;;4796058;29;20220;-79
2021/01/03 06:33:21;;;;;;;29.93;14.67;;;;;;;;;;4796173;29;20600;-79
2021/01/03 06:35:49;;;;;;;32.67;14.23;;;;;;;;;;4794699;29;20228;-79
2021/01/03 06:38:34;;;;;;;30.13;13.83;;;;;;;;;;4797563;29;20664;-79
2021/01/03 06:41:08;;;;;;;31.33;14.73;;;;;;;;;;4805143;29;20216;-79
2021/01/03 06:43:47;;;;;;;32.33;14.07;;;;;;;;;;4795679;29;20358;-79
2021/01/03 06:46:38;;;;;;;30.33;14.43;;;;;;;;;;4798628;29;20212;-79
2021/01/03 06:49:38;;;;;;;27.00;13.90;;;;;;;;;;4789561;29;20216;-79
2021/01/03 06:52:52;;;;;;;30.67;14.93;;;;;;;;;;4797325;29;20243;-79
2021/01/03 06:55:32;;;;;;;31.57;15.33;;;;;;;;;;4799992;29;20291;-79
2021/01/03 06:58:32;;;;;;;32.50;15.03;;;;;;;;;;4803848;29;20212;-80
2021/01/03 07:01:02;;;;;;;32.90;15.20;;;;;;;;;;4758897;29;20212;-79
2021/01/03 07:03:32;;;;;;;33.37;15.33;;;;;;;;;;4799394;29;20251;-80
2021/01/03 07:06:02;;;;;;;33.93;15.43;;;;;;;;;;4800359;29;20215;-80
2021/01/03 07:08:33;;;;;;;31.43;14.53;;;;;;;;;;4803122;29;20217;-79
2021/01/03 07:11:01;;;;;;;28.90;14.50;;;;;;;;;;4805937;29;20236;-79
2021/01/03 07:13:38;;;;;;;28.63;14.00;;;;;;;;;;4797139;29;20233;-79
2021/01/03 07:16:10;;;;;;;33.07;14.80;;;;;;;;;;4797730;29;20688;-79
2021/01/03 07:18:48;;;;;;;32.57;15.00;;;;;;;;;;4795412;29;20205;-79
2021/01/03 07:21:31;;;;;;;29.20;13.67;;;;;;;;;;4798837;29;20569;-79
2021/01/03 07:24:33;;;;;;;32.30;14.93;;;;;;;;;;4799477;29;20243;-79
2021/01/03 07:27:33;;;;;;;30.53;14.17;;;;;;;;;;4780119;29;20215;-80
2021/01/03 07:30:29;;;;;;;31.17;14.00;;;;;;;;;;4799371;29;20217;-80
2021/01/03 07:33:48;;;;;;;32.60;15.47;;;;;;;;;;4803470;29;20244;-79
2021/01/03 07:36:22;;;;;;;34.20;14.97;;;;;;;;;;4724664;30;20225;-80
2021/01/03 07:39:11;;;;;;;37.40;14.53;;;;;;;;;;4800260;29;20224;-79
2021/01/03 07:41:39;;;;;;;33.73;15.10;;;;;;;;;;4792733;29;20676;-79
2021/01/03 07:44:10;;;;;;;35.07;15.13;;;;;;;;;;4799636;29;20216;-79
2021/01/03 07:46:54;;;;;;;29.30;13.77;;;;;;;;;;4797684;29;20213;-80
2021/01/03 07:49:37;;;;;;;34.83;15.50;;;;;;;;;;4798394;29;20219;-80
2021/01/03 07:52:39;;;;;;;37.60;14.90;;;;;;;;;;4799230;29;20260;-80
2021/01/03 07:55:13;;;;;;;31.43;13.40;;;;;;;;;;4787677;29;20600;-80
2021/01/03 07:57:42;;;;;;;30.37;14.13;;;;;;;;;;4796650;29;20585;-79
2021/01/03 08:00:11;;;;;;;32.97;14.30;;;;;;;;;;4805445;29;20220;-80
2021/01/03 08:02:39;;;;;;;34.53;14.87;;;;;;;;;;4813138;29;20232;-80
2021/01/03 08:05:08;;;;;;;32.53;14.83;;;;;;;;;;4798233;29;24117;-80
2021/01/03 08:07:36;;;;;;;31.43;14.00;;;;;;;;;;4799681;29;20695;-80
2021/01/03 08:10:10;;;;;;;33.30;14.87;;;;;;;;;;4799001;29;20204;-79
2021/01/03 08:12:41;;;;;;;33.57;14.83;;;;;;;;;;4797409;29;20726;-80
2021/01/03 08:15:11;;;;;;;29.93;14.23;;;;;;;;;;4789386;29;20228;-79
2021/01/03 08:17:42;;;;;;;31.57;13.13;;;;;;;;;;4782980;29;20212;-80
2021/01/03 08:20:13;;;;;;;29.93;14.20;;;;;;;;;;4793643;29;20231;-80
2021/01/03 08:22:42;;;;;;;30.27;14.90;;;;;;;;;;4791797;29;20633;-80
2021/01/03 08:25:17;;;;;;;30.87;14.57;;;;;;;;;;4793782;29;20220;-79
2021/01/03 08:27:59;;;;;;;25.57;12.37;;;;;;;;;;4799297;29;20216;-80
2021/01/03 08:30:27;;;;;;;27.73;13.00;;;;;;;;;;4802443;29;20201;-80
2021/01/03 08:32:55;;;;;;;31.40;15.07;;;;;;;;;;4798167;29;20248;-79
2021/01/03 08:35:29;;;;;;;32.47;14.07;;;;;;;;;;4797368;29;20212;-80
2021/01/03 08:37:58;;;;;;;33.57;13.97;;;;;;;;;;4781815;29;20231;-80
2021/01/03 08:40:29;;;;;;;37.53;14.20;;;;;;;;;;4796691;29;20231;-79
2021/01/03 08:42:59;;;;;;;31.87;14.33;;;;;;;;;;4798539;29;20236;-79
2021/01/03 08:45:30;;;;;;;33.73;15.77;;;;;;;;;;4798638;29;20223;-80
2021/01/03 08:48:03;;;;;;;31.53;15.07;;;;;;;;;;4800699;29;20208;-79
2021/01/03 08:50:32;;;;;;;26.83;13.03;;;;;;;;;;4798168;29;20204;-80
2021/01/03 08:53:02;;;;;;;28.47;12.90;;;;;;;;;;4798119;29;20244;-80
2021/01/03 08:55:32;;;;;;;28.33;12.13;;;;;;;;;;4798384;29;20230;-80
2021/01/03 08:58:01;;;;;;;29.03;14.23;;;;;;;;;;4820547;29;20209;-80
2021/01/03 09:00:33;;;;;;;26.73;12.00;;;;;;;;;;4817012;29;20208;-80
2021/01/03 09:03:02;;;;;;;30.73;13.77;;;;;;;;;;4820338;29;20228;-80
2021/01/03 09:05:33;;;;;;;30.30;13.43;;;;;;;;;;4792519;29;20219;-80
2021/01/03 09:08:03;;;;;;;24.40;12.47;;;;;;;;;;4775394;29;20686;-79
2021/01/03 09:10:33;;;;;;;28.83;13.57;;;;;;;;;;4787822;29;20212;-79
2021/01/03 09:13:15;;;;;;;25.67;12.77;;;;;;;;;;4780776;29;20243;-80
2021/01/03 09:15:45;;;;;;;28.60;13.77;;;;;;;;;;4784236;29;20216;-80
2021/01/03 09:18:26;;;;;;;24.80;12.47;;;;;;;;;;4796671;29;20209;-80
2021/01/03 09:21:03;;;;;;;28.63;13.40;;;;;;;;;;4797904;29;20216;-80
2021/01/03 09:23:33;;;;;;;27.63;12.13;;;;;;;;;;4789236;29;20244;-80
2021/01/03 09:26:02;;;;;;;24.67;11.80;;;;;;;;;;4796157;29;20216;-79
2021/01/03 09:28:32;;;;;;;23.77;11.47;;;;;;;;;;4799231;29;20204;-80
2021/01/03 09:31:13;;;;;;;27.33;12.17;;;;;;;;;;4801166;29;20687;-79
2021/01/03 09:33:46;;;;;;;25.07;12.63;;;;;;;;;;4786532;29;20239;-80
2021/01/03 09:36:42;;;;;;;23.60;11.97;;;;;;;;;;4796408;29;20228;-80
2021/01/03 09:39:40;;;;;;;24.77;11.53;;;;;;;;;;4773219;29;20220;-80
2021/01/03 09:42:32;;;;;;;26.37;12.63;;;;;;;;;;4773903;29;20235;-80
2021/01/03 09:45:10;;;;;;;25.67;12.17;;;;;;;;;;4796064;29;20220;-80
2021/01/03 09:47:39;;;;;;;25.47;11.90;;;;;;;;;;4795679;29;20687;-80
2021/01/03 09:50:22;;;;;;;19.70;10.23;;;;;;;;;;4776469;29;20206;-80
2021/01/03 09:52:56;;;;;;;25.27;12.37;;;;;;;;;;4786736;29;20605;-79
2021/01/03 09:55:28;;;;;;;22.30;10.97;;;;;;;;;;4782119;29;20706;-79
2021/01/03 09:58:02;;;;;;;19.17;10.93;;;;;;;;;;4794986;29;20221;-79
2021/01/03 10:00:50;;;;;;;21.37;9.93;;;;;;;;;;4813214;29;20212;-79
2021/01/03 10:03:21;;;;;;;23.73;12.07;;;;;;;;;;4814374;29;20251;-79
2021/01/03 10:05:50;;;;;;;23.27;11.57;;;;;;;;;;4780832;29;20205;-80
2021/01/03 10:08:27;;;;;;;21.30;10.73;;;;;;;;;;4805501;29;20237;-80
2021/01/03 10:10:58;;;;;;;26.37;12.47;;;;;;;;;;4792060;29;20211;-81
2021/01/03 10:13:28;;;;;;;20.37;10.70;;;;;;;;;;4793048;29;20719;-81
2021/01/03 10:15:57;;;;;;;23.47;11.57;;;;;;;;;;4778900;29;20227;-81
2021/01/03 10:18:32;;;;;;;20.73;10.60;;;;;;;;;;4779317;29;20220;-81
2021/01/03 10:21:12;;;;;;;23.93;10.50;;;;;;;;;;4792661;29;20233;-80
2021/01/03 10:23:43;;;;;;;20.60;10.97;;;;;;;;;;4785288;29;20247;-81
2021/01/03 10:26:20;;;;;;;19.20;10.43;;;;;;;;;;4787232;29;20812;-80
2021/01/03 10:28:48;;;;;;;22.33;11.53;;;;;;;;;;4805195;29;20228;-80
2021/01/03 10:31:19;;;;;;;23.17;11.93;;;;;;;;;;4805996;29;20219;-80
2021/01/03 10:33:49;;;;;;;20.30;10.70;;;;;;;;;;4801185;29;20233;-80
2021/01/03 10:36:19;;;;;;;19.93;10.67;;;;;;;;;;4791696;29;20711;-80
2021/01/03 10:38:47;;;;;;;23.20;11.47;;;;;;;;;;4788555;29;20213;-80
2021/01/03 10:41:17;;;;;;;19.63;10.87;;;;;;;;;;4789869;29;20711;-80
2021/01/03 10:43:45;;;;;;;22.70;11.77;;;;;;;;;;4814661;29;20231;-80
2021/01/03 10:46:16;;;;;;;21.27;10.37;;;;;;;;;;4804845;29;20224;-80
2021/01/03 10:48:44;;;;;;;22.63;11.60;;;;;;;;;;4800194;29;20582;-79
2021/01/03 10:51:36;;;;;;;19.50;10.47;;;;;;;;;;4797453;29;20212;-80
2021/01/03 10:54:37;;;;;;;20.37;10.83;;;;;;;;;;4804501;29;20584;-81
2021/01/03 10:57:12;;;;;;;20.27;11.93;;;;;;;;;;4784549;29;20220;-81
2021/01/03 10:59:42;;;;;;;20.07;10.83;;;;;;;;;;4796997;29;20212;-81
2021/01/03 11:02:13;;;;;;;19.20;9.60;;;;;;;;;;4801705;29;20228;-81
2021/01/03 11:04:45;;;;;;;18.63;11.33;;;;;;;;;;4787472;29;20219;-81
2021/01/03 11:07:16;;;;;;;22.53;10.90;;;;;;;;;;4782626;29;20424;-81
2021/01/03 11:09:48;;;;;;;20.03;10.70;;;;;;;;;;4793649;29;20201;-81
2021/01/03 11:12:20;;;;;;;21.40;10.37;;;;;;;;;;4786246;29;20267;-81
2021/01/03 11:14:52;;;;;;;22.30;10.83;;;;;;;;;;4786730;29;20236;-81
2021/01/03 11:17:30;;;;;;;21.73;11.47;;;;;;;;;;4787511;29;20219;-81
2021/01/03 11:20:02;;;;;;;22.63;10.77;;;;;;;;;;4801746;29;20676;-81
2021/01/03 11:22:32;;;;;;;21.77;10.77;;;;;;;;;;4801882;29;20597;-81
2021/01/03 11:25:07;;;;;;;22.73;10.23;;;;;;;;;;4797249;29;20216;-81
2021/01/03 11:27:40;;;;;;;24.97;11.57;;;;;;;;;;4777938;29;20206;-81
2021/01/03 11:30:11;;;;;;;21.23;11.50;;;;;;;;;;4786331;29;20212;-81
2021/01/03 11:32:43;;;;;;;21.30;11.20;;;;;;;;;;4782308;29;20237;-81
2021/01/03 11:35:15;;;;;;;20.07;11.50;;;;;;;;;;4780920;29;20228;-81
2021/01/03 11:37:49;;;;;;;21.67;11.13;;;;;;;;;;4798823;29;20332;-81
2021/01/03 11:40:19;;;;;;;21.77;10.33;;;;;;;;;;4783347;29;20227;-81
2021/01/03 11:42:51;;;;;;;20.97;11.17;;;;;;;;;;4799007;29;20224;-81
2021/01/03 11:45:22;;;;;;;21.63;11.43;;;;;;;;;;4794489;29;20204;-81
2021/01/03 11:47:57;;;;;;;20.97;10.83;;;;;;;;;;4791751;29;20216;-81
2021/01/03 11:50:27;;;;;;;21.40;10.13;;;;;;;;;;4782582;29;20208;-81
2021/01/03 11:52:59;;;;;;;21.20;10.93;;;;;;;;;;4791146;29;20237;-81
2021/01/03 11:55:30;;;;;;;20.27;11.17;;;;;;;;;;4780587;29;20213;-81
2021/01/03 11:58:07;;;;;;;26.50;11.83;;;;;;;;;;4792409;29;20215;-81
2021/01/03 12:00:40;;;;;;;23.57;11.17;;;;;;;;;;4807838;29;20204;-81
2021/01/03 12:03:12;;;;;;;21.50;11.30;;;;;;;;;;4765706;29;20224;-80
2021/01/03 12:05:40;;;;;;;21.97;11.33;;;;;;;;;;4787575;29;20220;-81
2021/01/03 12:08:09;;;;;;;20.73;10.77;;;;;;;;;;4782207;29;20216;-80
2021/01/03 12:10:38;;;;;;;16.60;9.30;;;;;;;;;;4799893;29;20208;-80
2021/01/03 12:13:08;;;;;;;18.80;10.43;;;;;;;;;;4778944;29;20232;-80
2021/01/03 12:15:37;;;;;;;19.97;9.63;;;;;;;;;;4792956;29;20233;-81
2021/01/03 12:18:06;;;;;;;25.13;10.53;;;;;;;;;;4797605;29;20225;-80
2021/01/03 12:20:35;;;;;;;21.00;10.50;;;;;;;;;;4797019;29;20687;-81
2021/01/03 12:23:05;;;;;;;25.67;11.07;;;;;;;;;;4798392;29;20240;-80
2021/01/03 12:25:34;;;;;;;22.17;10.97;;;;;;;;;;4783862;29;20223;-80
2021/01/03 12:28:02;;;;;;;20.17;10.80;;;;;;;;;;4796840;29;20204;-80
2021/01/03 12:30:33;;;;;;;20.00;9.83;;;;;;;;;;4800680;29;20220;-81
2021/01/03 12:33:03;;;;;;;24.47;10.30;;;;;;;;;;4780852;29;20235;-80
2021/01/03 12:35:34;;;;;;;26.40;11.50;;;;;;;;;;4796898;29;20219;-80
2021/01/03 12:38:04;;;;;;;20.40;10.47;;;;;;;;;;4793495;29;20221;-80
2021/01/03 12:40:32;;;;;;;20.57;10.43;;;;;;;;;;4798729;29;20661;-80
2021/01/03 12:43:00;;;;;;;21.33;10.27;;;;;;;;;;4795644;29;20716;-80
2021/01/03 12:45:29;;;;;;;21.53;10.47;;;;;;;;;;4782830;29;20593;-80
2021/01/03 12:47:59;;;;;;;17.83;9.57;;;;;;;;;;4790294;29;20211;-81
2021/01/03 12:50:31;;;;;;;22.10;11.10;;;;;;;;;;4788924;29;20696;-80
2021/01/03 12:53:04;;;;;;;21.53;11.07;;;;;;;;;;4803452;29;20225;-80
2021/01/03 12:55:33;;;;;;;19.17;10.70;;;;;;;;;;4795887;29;20216;-80
2021/01/03 12:58:02;;;;;;;22.30;10.70;;;;;;;;;;4796628;29;20227;-81
2021/01/03 13:00:32;;;;;;;21.47;11.17;;;;;;;;;;4792709;29;20227;-83
2021/01/03 13:03:02;;;;;;;23.73;11.87;;;;;;;;;;4798028;29;20228;-80
2021/01/03 13:05:31;;;;;;;21.87;10.77;;;;;;;;;;4795768;29;20216;-80
2021/01/03 13:08:01;;;;;;;20.63;10.60;;;;;;;;;;4820476;29;20219;-80
2021/01/03 13:10:29;;;;;;;19.40;9.80;;;;;;;;;;4791399;29;20217;-80
2021/01/03 13:12:58;;;;;;;21.30;11.80;;;;;;;;;;4809847;29;20239;-80
2021/01/03 13:15:28;;;;;;;22.63;10.93;;;;;;;;;;4799052;29;20233;-80
2021/01/03 13:17:58;;;;;;;18.90;9.77;;;;;;;;;;4781202;29;20220;-80
2021/01/03 13:20:29;;;;;;;18.20;9.73;;;;;;;;;;4769652;29;20216;-80
2021/01/03 13:22:58;;;;;;;19.63;10.27;;;;;;;;;;4780509;29;20625;-80
2021/01/03 13:25:27;;;;;;;21.40;10.53;;;;;;;;;;4784798;29;20227;-81
2021/01/03 13:27:55;;;;;;;16.63;9.13;;;;;;;;;;4793939;29;20224;-80
2021/01/03 13:30:26;;;;;;;21.40;9.77;;;;;;;;;;4786172;29;20220;-80
2021/01/03 13:32:54;;;;;;;20.43;11.00;;;;;;;;;;4789141;29;20560;-80
2021/01/03 13:35:24;;;;;;;22.90;11.23;;;;;;;;;;4794407;29;20229;-81
2021/01/03 13:37:54;;;;;;;18.70;9.90;;;;;;;;;;4794626;29;20219;-81
2021/01/03 13:40:25;;;;;;;21.70;11.23;;;;;;;;;;4778572;29;20250;-80
2021/01/03 13:42:54;;;;;;;18.33;9.77;;;;;;;;;;4780424;29;20236;-80
2021/01/03 13:45:24;;;;;;;20.30;10.67;;;;;;;;;;4794171;29;20219;-80
2021/01/03 13:47:53;;;;;;;20.63;10.53;;;;;;;;;;4791873;29;20223;-81
2021/01/03 13:50:23;;;;;;;22.33;11.07;;;;;;;;;;4791516;29;20216;-81
2021/01/03 13:52:53;;;;;;;21.30;9.87;;;;;;;;;;4786799;29;20609;-80
2021/01/03 13:55:22;;;;;;;21.20;10.93;;;;;;;;;;4789482;29;20212;-80
2021/01/03 13:57:50;;;;;;;20.53;10.50;;;;;;;;;;4788644;29;20212;-80
2021/01/03 14:00:22;;;;;;;21.07;10.80;;;;;;;;;;4785557;29;20239;-81
2021/01/03 14:02:52;;;;;;;21.20;10.07;;;;;;;;;;4780387;29;20559;-80
2021/01/03 14:05:23;;;;;;;23.93;10.77;;;;;;;;;;4780015;29;20213;-81
2021/01/03 14:07:53;;;;;;;21.70;10.90;;;;;;;;;;4774923;29;20695;-80
2021/01/03 14:10:23;;;;;;;18.27;9.43;;;;;;;;;;4788663;29;20575;-81
2021/01/03 14:12:52;;;;;;;19.67;10.40;;;;;;;;;;4794152;29;20235;-80
2021/01/03 14:15:21;;;;;;;19.83;9.83;;;;;;;;;;4807347;29;20209;-81
2021/01/03 14:17:49;;;;;;;18.90;9.90;;;;;;;;;;4802541;29;20216;-80
2021/01/03 14:20:22;;;;;;;19.40;9.67;;;;;;;;;;4790478;29;20208;-80
2021/01/03 14:22:53;;;;;;;19.57;9.90;;;;;;;;;;4783725;30;20239;-80
2021/01/03 14:25:26;;;;;;;20.60;10.77;;;;;;;;;;4783772;29;20239;-81
2021/01/03 14:27:57;;;;;;;20.53;9.87;;;;;;;;;;4805416;29;20208;-81
2021/01/03 14:30:30;;;;;;;21.00;10.33;;;;;;;;;;4793976;29;20530;-81
2021/01/03 14:33:04;;;;;;;21.87;10.73;;;;;;;;;;4799281;29;20236;-81
2021/01/03 14:35:37;;;;;;;16.90;9.37;;;;;;;;;;4780126;29;20231;-81
2021/01/03 14:38:09;;;;;;;19.33;10.70;;;;;;;;;;4783044;29;20211;-81
2021/01/03 14:40:42;;;;;;;21.70;9.77;;;;;;;;;;4789192;29;20216;-81
2021/01/03 14:43:26;;;;;;;20.17;9.87;;;;;;;;;;4794800;29;20236;-81
2021/01/03 14:46:02;;;;;;;21.63;10.47;;;;;;;;;;4792721;29;20208;-81
2021/01/03 14:49:25;;;;;;;22.30;10.27;;;;;;;;;;4792581;29;20555;-81